Accueil
METAR-TAF:

METAR-TAF

Aéroports :

Aéroport de Tromsø

Tromsø, Norvège

latitude: 69-41N, longitude: 018-55E, altitude: 1 m

Observation

Le bulletin a été fait il y a 28 minutes, à 01:20 UTC
Vent 1 kt de direction variable
Température 12°C
Humidité 88%
Pression 1017 hPa
Visibilité 10 km ou plus
Quelques nuages à une hauteur de 7000 ft

METAR: ENTC 170120Z VRB01KT 9999 FEW070 12/10 Q1017 RMK WIND 2600FT 19016KT

Heure: 03:48 (01:48 UTC)

Prévision

Prévision valable du 17 à 00 UTC au 17 à 24 UTC
Vent 8 kt de nord/nord-est
Visibilité 10 km ou plus
Quelques nuages à une hauteur de 6000 ft

TAF: ENTC 1700/1724 03008KT 9999 FEW060

Observations et prévisions météorologiques de plus de 4000 aéroports (messages METAR et TAF).

Les stations disponibles sont représentées par des disques jaunes et rouges sur la carte.

Passer la souris dessus pour voir le nom de la station.

Cliquer dessus pour voir les observations et prévisions météorologiques.

Pour changer de carte: cliquez sur les boutons verts avec une croix noire pour zoomer, sur le bouton vert avec un tiret pour effectuer un zoom arrière, ou sur les flèches vertes pour les cartes adjacentes.


METAR-TAF: